CND4 weather

Stanhope Municipal Airport
Haliburton, Ontario, Canada

Public forecast

Using degrees Celsius for public forecast. Weather courtesy of forecast.io.

METAR (pilot weather report)

Closest report is Muskoka Airport, 29.3 nm (54.3 km) WSW. Retrieved 2019/04/23 03:00 UTC (37 minutes ago):

CYQA 230300Z AUTO 09005KT 080V140 9SM CLR 10/05 A3008 RMK SLP193

TAF (pilot weather forecast)

Forecast is more than 6 hours old.

Closest forecast is Muskoka Airport, 29.3 nm (54.3 km) WSW. Retrieved 2019/04/22 20:00 UTC (8 hours ago):

TAF CYQA 221938Z 2220/2302 15006KT P6SM FEW025 BECMG 2222/2224 VRB03KT RMK FCST BASED ON AUTO OBS. NXT FCST WILL BE ISSUED AT 231145Z